Caronport, Canada
Current Conditions -  °F | °C
As of 3:39 PM on Friday 28 Nov 2014 (Local Time) from CYQR Reporting Station
Light Snow Light Snow  
Wind Chill: -7°   Ceiling: 1500
Heat Index: 10°   Visibility: 3mi
Dew Point:   Wind: 16mph
Humidity: 85%   Direction: 130°SE
Pressure: 29.52"   Gusts: NA
Location:  50.46°N, 105.82°W
Report Text: CYQR 282139Z 13014KT 3SM -SN BLSN OVC015 M12/M14 A2952 RMK SC8 SLP041
Loading
Personal Weather Stations






























Interactive Weather Map New forecast layout! Learn more

10-Day Weather Forecast

Advertisements
Track Severe Weather on mobile